Nearby METAR Reports

 

EGNR - Hawarden (aut), United Kingdom
Distance from station: ESE 33mi, 53km
Updated: 23/04/2018 20:50
NOT Current
Nearby showers, Mostly cloudy
Nearby showers, Mostly cloudy
 Wind from SW
Wind: SW 17 mph , 28 km/h
Temperature: 12°C
Dew Point: 10°C
Humidity: 88%
Barometer: 1012 hPa
Summary: Nearby Showers
Clouds: Mostly cloudy
Visibility: 6 miles , 10 km
Cloud details: Mostly cloudy 457 m
2018/04/23 19:50 EGNR 231950Z 22015KT 9999 VCSH BKN015 12/10 Q1012
EGOV - Valley Raf, United Kingdom
Distance from station: W 33mi, 53km
Updated: 24/04/2018 02:50
Mostly cloudy
Mostly cloudy
 Wind from SW
Wind: SW 20 mph , 31 km/h
Temperature: 9°C
Wind Chill: 5°C
Dew Point: 6°C
Humidity: 82%
Barometer: 1012 hPa
Clouds: Mostly cloudy
Visibility: 6 miles , 10 km
Cloud details: Mostly cloudy 4267 m
2018/04/24 01:50 EGOV 240150Z AUTO 23017KT 9999 BKN140/// 09/06 Q1012
 
EGGP - Liverpool Airpor, United Kingdom
Distance from station: E 37mi, 59km
Updated: 24/04/2018 03:20
Partly cloudy
Partly cloudy
 Wind from SW
Wind: SW 7 mph , 11 km/h
Temperature: 10°C
Wind Chill: 8°C
Dew Point: 6°C
Humidity: 76%
Barometer: 1012 hPa
Clouds: Partly cloudy
Visibility: 6 miles , 10 km
Cloud details: Partly cloudy 1219 m
2018/04/24 02:20 EGGP 240220Z 23006KT 9999 SCT040 10/06 Q1012
EGNH - Blackpool Airpor, United Kingdom
Distance from station: NE 44mi, 72km
Updated: 23/04/2018 21:50
NOT Current
Mostly cloudy
Mostly cloudy
 Wind from WSW
Wind: WSW 25 mph , 41 km/h
Temperature: 10°C
Wind Chill: 6°C
Dew Point: 10°C
Humidity: 100%
Barometer: 1011 hPa
Clouds: Mostly cloudy
Visibility: 4 miles , 6 km
Cloud details: Mostly cloudy 61 m
2018/04/23 20:50 EGNH 232050Z 24022KT 6000 BKN002 10/10 Q1011
 
EGNO - Wharton, United Kingdom
Distance from station: NE 47mi, 76km
Updated: 23/04/2018 19:50
NOT Current
Mostly cloudy
Mostly cloudy
 Wind from WSW
Wind: WSW 13 mph , 20 km/h
Temperature: 11°C
Dew Point: 9°C
Humidity: 88%
Barometer: 1010 hPa
Clouds: Mostly cloudy
Visibility: 6 miles , 10 km
Cloud details: Mostly cloudy 488 m
2018/04/23 18:50 EGNO 231850Z 24011KT 9999 BKN016 11/09 Q1010
EGOS - Shawbury Raf, United Kingdom
Distance from station: SE 56mi, 89km
Updated: 24/04/2018 02:50
Overcast
Overcast
 Wind from WSW
Wind: WSW 8 mph , 13 km/h
Temperature: 8°C
Wind Chill: 6°C
Dew Point: 7°C
Humidity: 93%
Barometer: 1013 hPa
Clouds: Overcast
Visibility: 6 miles , 10 km
Cloud details: Overcast 4267 m
2018/04/24 01:50 EGOS 240150Z AUTO 24007KT 9999 OVC140/// 08/07 Q1013
 
EGCC - Manchester Intl, United Kingdom
Distance from station: E 61mi, 98km
Updated: 24/04/2018 03:20
Clear
Clear
 Wind from WSW
Wind: WSW 8 mph , 13 km/h
Temperature: 9°C
Wind Chill: 7°C
Dew Point: 6°C
Humidity: 82%
Barometer: 1012 hPa
Clouds: Clear
Visibility: 6 miles , 10 km
2018/04/24 02:20 EGCC 240220Z AUTO 25007KT 9999 NCD 09/06 Q1012
EGNS - Isle Of Man/Rona, United Kingdom
Distance from station: NW 66mi, 107km
Updated: 24/04/2018 02:50
Few Clouds
Few Clouds
 Wind from WSW
Wind: WSW 17 mph , 28 km/h
Temperature: 9°C
Wind Chill: 6°C
Dew Point: 7°C
Humidity: 87%
Barometer: 1010 hPa
Clouds: Few Clouds
Visibility: 6 miles , 10 km
Cloud details: Few Clouds 366 m
2018/04/24 01:50 EGNS 240150Z 24015KT 210V270 9999 FEW012 09/07 Q1010
 
EGNM - Leeds And Bradfo, United Kingdom
Distance from station: ENE 95mi, 153km
Updated: 24/04/2018 03:20
Clear
Clear
 Wind from WSW
Wind: WSW 8 mph , 13 km/h
Temperature: 8°C
Wind Chill: 6°C
Dew Point: 5°C
Humidity: 82%
Barometer: 1009 hPa
Summary: Clear
Visibility: greater than 7 miles , 10 km
2018/04/24 02:20 EGNM 240220Z 24007KT 170V290 CAVOK 08/05 Q1009
EGBB - Birmingham Airpo, United Kingdom
Distance from station: ESE 100mi, 161km
Updated: 24/04/2018 03:20
Partly cloudy
Partly cloudy
 Wind from W
Wind: W 6 mph , 9 km/h
Temperature: 11°C
Dew Point: 9°C
Humidity: 88%
Barometer: 1013 hPa
Clouds: Partly cloudy
Visibility: 6 miles , 10 km
Cloud details: Partly cloudy 366 m
2018/04/24 02:20 EGBB 240220Z 26005KT 210V310 9999 SCT012 11/09 Q1013